createdAt,value
2017-11-24T00:00:42.813Z,100696.92
2017-11-24T00:03:10.502Z,100696.70
2017-11-24T00:05:38.181Z,100683.48
2017-11-24T00:08:05.873Z,100689.46
2017-11-24T00:10:33.474Z,100682.71
2017-11-24T00:13:01.152Z,100676.04
2017-11-24T00:15:28.805Z,100679.77
2017-11-24T00:17:56.457Z,100673.99
2017-11-24T00:20:24.075Z,100667.35
2017-11-24T00:22:51.785Z,100669.70
2017-11-24T00:25:19.429Z,100672.86
2017-11-24T00:27:47.104Z,100666.17
2017-11-24T00:30:14.813Z,100678.23
2017-11-24T00:32:42.400Z,100678.96
2017-11-24T00:35:10.093Z,100682.61
2017-11-24T00:37:37.736Z,100688.59
2017-11-24T00:40:05.360Z,100695.92
2017-11-24T00:42:33.047Z,100704.33
2017-11-24T00:45:00.744Z,100705.47
2017-11-24T00:47:28.341Z,100701.98
2017-11-24T00:49:56.053Z,100703.26
2017-11-24T00:52:23.707Z,100696.67
2017-11-24T00:54:51.438Z,100705.83
2017-11-24T00:57:19.029Z,100710.75
2017-11-24T00:59:46.742Z,100706.27
2017-11-24T01:02:14.412Z,100705.48
2017-11-24T01:04:42.073Z,100711.20
2017-11-24T01:07:09.704Z,100707.36
2017-11-24T01:09:37.427Z,100707.41
2017-11-24T01:12:05.113Z,100709.11
2017-11-24T01:14:32.788Z,100703.19
2017-11-24T01:17:00.506Z,100702.84
2017-11-24T01:19:28.084Z,100716.48
2017-11-24T01:21:55.781Z,100716.23
2017-11-24T01:24:23.518Z,100712.55
2017-11-24T01:26:51.270Z,100703.91
2017-11-24T01:29:18.959Z,100702.95
2017-11-24T01:31:46.659Z,100706.82
2017-11-24T01:34:14.275Z,100712.77
2017-11-24T01:36:41.970Z,100711.38
2017-11-24T01:39:09.590Z,100711.25
2017-11-24T01:41:37.287Z,100706.27
2017-11-24T01:44:04.950Z,100713.31
2017-11-24T01:46:32.656Z,100713.86
2017-11-24T01:49:00.303Z,100714.59
2017-11-24T01:51:28.042Z,100723.32
2017-11-24T01:53:55.690Z,100709.24
2017-11-24T01:56:23.453Z,100707.73
2017-11-24T01:58:51.096Z,100704.85
2017-11-24T02:01:18.791Z,100706.81
2017-11-24T02:03:46.380Z,100691.36
2017-11-24T02:06:14.004Z,100680.34
2017-11-24T02:08:41.707Z,100685.22
2017-11-24T02:11:09.408Z,100686.35
2017-11-24T02:13:37.501Z,100682.42
2017-11-24T02:16:05.212Z,100683.30
2017-11-24T02:18:32.874Z,100682.81
2017-11-24T02:21:00.493Z,100679.91
2017-11-24T02:23:28.131Z,100672.24
2017-11-24T02:25:55.803Z,100679.70
2017-11-24T02:28:23.504Z,100681.34
2017-11-24T02:30:51.114Z,100687.99
2017-11-24T02:33:18.761Z,100680.13
2017-11-24T02:35:46.423Z,100681.64
2017-11-24T02:38:14.123Z,100696.27
2017-11-24T02:40:41.709Z,100694.77
2017-11-24T02:43:09.404Z,100681.34
2017-11-24T02:45:37.063Z,100687.81
2017-11-24T02:48:04.759Z,100693.08
2017-11-24T02:50:32.442Z,100696.48
2017-11-24T02:53:00.130Z,100693.59
2017-11-24T02:55:27.717Z,100682.87
2017-11-24T02:57:55.436Z,100671.26
2017-11-24T03:00:23.125Z,100669.92
2017-11-24T03:02:50.824Z,100677.50
2017-11-24T03:05:18.456Z,100685.78
2017-11-24T03:07:46.154Z,100671.97
2017-11-24T03:10:13.836Z,100671.13
2017-11-24T03:12:41.500Z,100669.20
2017-11-24T03:15:10.007Z,100679.81
2017-11-24T03:17:37.733Z,100671.53
2017-11-24T03:20:05.394Z,100677.34
2017-11-24T03:22:33.120Z,100671.67
2017-11-24T03:25:00.769Z,100670.31
2017-11-24T03:27:28.404Z,100674.20
2017-11-24T03:29:56.109Z,100669.38
2017-11-24T03:32:23.809Z,100668.00
2017-11-24T03:34:51.489Z,100676.45
2017-11-24T03:37:19.328Z,100665.23
2017-11-24T03:39:46.956Z,100667.02
2017-11-24T03:42:14.689Z,100674.21
2017-11-24T03:44:42.391Z,100673.81
2017-11-24T03:47:10.043Z,100666.38
2017-11-24T03:49:37.737Z,100653.00
2017-11-24T03:52:05.430Z,100654.64
2017-11-24T03:54:33.060Z,100669.97
2017-11-24T03:57:00.717Z,100663.20
2017-11-24T03:59:28.428Z,100671.37
2017-11-24T04:01:56.113Z,100657.42
2017-11-24T04:04:23.724Z,100666.70
2017-11-24T04:06:51.397Z,100675.55
2017-11-24T04:09:19.098Z,100675.98
2017-11-24T04:11:46.816Z,100668.40
2017-11-24T04:14:14.476Z,100656.00
2017-11-24T04:16:42.153Z,100662.48
2017-11-24T04:19:09.877Z,100660.13
2017-11-24T04:21:37.588Z,100653.63
2017-11-24T04:24:05.356Z,100647.28
2017-11-24T04:26:33.035Z,100654.06
2017-11-24T04:29:00.710Z,100650.64
2017-11-24T04:31:28.394Z,100654.22
2017-11-24T04:33:56.041Z,100646.36
2017-11-24T04:36:23.749Z,100643.33
2017-11-24T04:38:51.398Z,100641.22
2017-11-24T04:41:19.113Z,100637.03
2017-11-24T04:43:46.876Z,100635.73
2017-11-24T04:46:14.608Z,100644.67
2017-11-24T04:48:42.300Z,100638.28
2017-11-24T04:51:09.931Z,100634.09
2017-11-24T04:53:37.537Z,100628.52
2017-11-24T04:56:05.373Z,100632.63
2017-11-24T04:58:33.037Z,100636.05
2017-11-24T05:01:00.748Z,100633.26
2017-11-24T05:03:28.405Z,100627.70
2017-11-24T05:05:56.040Z,100632.22
2017-11-24T05:08:23.730Z,100626.47
2017-11-24T05:10:51.473Z,100624.34
2017-11-24T05:13:19.145Z,100628.62
2017-11-24T05:15:47.797Z,100624.25
2017-11-24T05:18:15.454Z,100617.11
2017-11-24T05:20:43.189Z,100608.66
2017-11-24T05:23:10.865Z,100609.16
2017-11-24T05:25:38.607Z,100607.20
2017-11-24T05:28:06.309Z,100604.10
2017-11-24T05:30:33.953Z,100607.95
2017-11-24T05:33:01.654Z,100601.81
2017-11-24T05:35:30.240Z,100593.48
2017-11-24T05:37:57.954Z,100587.09
2017-11-24T05:40:25.622Z,100592.00
2017-11-24T05:42:53.266Z,100589.28
2017-11-24T05:45:20.878Z,100585.66
2017-11-24T05:47:48.538Z,100593.34
2017-11-24T05:50:16.165Z,100595.00
2017-11-24T05:52:43.852Z,100590.91
2017-11-24T05:55:11.543Z,100591.61
2017-11-24T05:57:39.226Z,100593.89
2017-11-24T06:00:06.810Z,100591.79
2017-11-24T06:02:34.432Z,100594.57
2017-11-24T06:05:02.092Z,100589.33
2017-11-24T06:07:29.767Z,100601.15
2017-11-24T06:09:57.422Z,100608.66
2017-11-24T06:12:25.163Z,100611.79
2017-11-24T06:14:52.856Z,100599.73
2017-11-24T06:17:20.530Z,100614.91
2017-11-24T06:19:48.247Z,100615.44
2017-11-24T06:22:15.953Z,100616.52
2017-11-24T06:24:43.728Z,100614.45
2017-11-24T06:27:11.392Z,100616.77
2017-11-24T06:29:39.020Z,100616.22
2017-11-24T06:32:06.706Z,100613.28
2017-11-24T06:34:35.621Z,100605.57
2017-11-24T06:37:03.835Z,100594.26
2017-11-24T06:39:31.964Z,100588.12
2017-11-24T06:41:59.807Z,100589.78
2017-11-24T06:44:27.491Z,100583.98
2017-11-24T06:46:55.316Z,100579.38
2017-11-24T06:49:24.120Z,100586.30
2017-11-24T06:51:52.155Z,100594.39
2017-11-24T06:54:20.264Z,100591.46
2017-11-24T06:56:47.971Z,100584.52
2017-11-24T06:59:15.663Z,100575.84
2017-11-24T07:01:43.528Z,100574.48
2017-11-24T07:04:11.224Z,100572.63
2017-11-24T07:06:40.157Z,100588.91
2017-11-24T07:09:07.891Z,100600.20
2017-11-24T07:11:35.581Z,100597.53
2017-11-24T07:14:03.454Z,100600.44
2017-11-24T07:16:31.854Z,100584.50
2017-11-24T07:18:59.639Z,100577.00
2017-11-24T07:21:27.757Z,100574.07
2017-11-24T07:23:55.471Z,100572.93
2017-11-24T07:26:23.380Z,100563.66
2017-11-24T07:28:51.061Z,100563.94
2017-11-24T07:31:19.145Z,100555.47
2017-11-24T07:33:46.878Z,100558.48
2017-11-24T07:36:16.020Z,100553.91
2017-11-24T07:38:43.854Z,100556.41
2017-11-24T07:41:11.680Z,100562.35
2017-11-24T07:43:39.363Z,100558.72
2017-11-24T07:46:07.072Z,100546.55
2017-11-24T07:48:34.773Z,100543.75
2017-11-24T07:51:03.175Z,100545.66
2017-11-24T07:53:31.287Z,100543.61
2017-11-24T07:55:59.058Z,100552.19
2017-11-24T07:58:27.101Z,100539.22
2017-11-24T08:00:55.352Z,100535.89
2017-11-24T08:03:23.151Z,100534.79
2017-11-24T08:05:50.912Z,100537.48
2017-11-24T08:08:19.014Z,100540.95
2017-11-24T08:10:47.119Z,100542.19
2017-11-24T08:13:15.353Z,100537.31
2017-11-24T08:15:43.138Z,100545.58
2017-11-24T08:18:10.918Z,100535.75
2017-11-24T08:20:38.673Z,100523.82
2017-11-24T08:23:08.157Z,100527.66
2017-11-24T08:25:35.932Z,100529.59
2017-11-24T08:28:03.638Z,100537.73
2017-11-24T08:30:31.401Z,100534.68
2017-11-24T08:32:59.531Z,100528.66
2017-11-24T08:35:28.701Z,100525.95
2017-11-24T08:37:56.821Z,100530.03
2017-11-24T08:40:24.525Z,100529.30
2017-11-24T08:42:52.233Z,100531.79
2017-11-24T08:45:21.066Z,100529.84
2017-11-24T08:47:54.308Z,100536.56
2017-11-24T08:50:22.070Z,100544.97
2017-11-24T08:52:50.196Z,100555.94
2017-11-24T08:55:18.484Z,100553.11
2017-11-24T08:57:46.491Z,100559.30
2017-11-24T09:00:14.153Z,100549.33
2017-11-24T09:02:41.949Z,100551.51
2017-11-24T09:05:10.796Z,100543.72
2017-11-24T09:07:38.930Z,100537.73
2017-11-24T09:10:06.711Z,100533.67
2017-11-24T09:12:34.461Z,100535.16
2017-11-24T09:15:02.710Z,100515.78
2017-11-24T09:17:32.684Z,100507.19
2017-11-24T09:20:00.413Z,100503.87
2017-11-24T09:22:29.147Z,100495.39
2017-11-24T09:24:58.173Z,100483.61
2017-11-24T09:27:26.812Z,100486.90
2017-11-24T09:29:54.931Z,100492.39
2017-11-24T09:32:22.652Z,100492.77
2017-11-24T09:34:51.611Z,100487.98
2017-11-24T09:37:19.349Z,100497.13
2017-11-24T09:39:47.829Z,100490.48
2017-11-24T09:42:15.849Z,100491.28
2017-11-24T09:44:45.730Z,100502.78
2017-11-24T09:47:13.520Z,100510.45
2017-11-24T09:49:41.642Z,100516.26
2017-11-24T09:52:09.424Z,100518.34
2017-11-24T09:54:37.535Z,100521.58
2017-11-24T09:57:06.133Z,100518.11
2017-11-24T09:59:34.772Z,100521.03
2017-11-24T10:02:02.486Z,100531.56
2017-11-24T10:04:30.994Z,100531.18
2017-11-24T10:06:58.813Z,100529.89
2017-11-24T10:09:26.522Z,100529.25
2017-11-24T10:11:54.276Z,100525.37
2017-11-24T10:14:22.106Z,100523.52
2017-11-24T10:16:49.896Z,100522.59
2017-11-24T10:19:19.012Z,100522.96
2017-11-24T10:21:52.243Z,100519.67
2017-11-24T10:24:20.420Z,100518.20
2017-11-24T10:26:48.124Z,100524.34
2017-11-24T10:29:16.186Z,100524.34
2017-11-24T10:31:43.886Z,100533.59
2017-11-24T10:34:12.322Z,100523.64
2017-11-24T10:36:39.940Z,100520.75
2017-11-24T10:39:09.934Z,100515.39
2017-11-24T10:41:37.999Z,100520.00
2017-11-24T10:44:05.821Z,100530.97
2017-11-24T10:46:34.792Z,100525.96
2017-11-24T10:49:02.574Z,100536.47
2017-11-24T10:51:30.295Z,100535.55
2017-11-24T10:53:58.356Z,100543.05
2017-11-24T10:56:26.376Z,100548.34
2017-11-24T10:58:55.327Z,100560.92
2017-11-24T11:01:23.337Z,100560.69
2017-11-24T11:03:52.057Z,100560.47
2017-11-24T11:06:19.799Z,100556.11
2017-11-24T11:08:47.737Z,100557.32
2017-11-24T11:11:17.476Z,100562.20
2017-11-24T11:13:45.226Z,100553.22
2017-11-24T11:16:13.192Z,100555.58
2017-11-24T11:18:41.009Z,100564.59
2017-11-24T11:21:09.188Z,100586.70
2017-11-24T11:23:37.381Z,100587.47
2017-11-24T11:26:05.255Z,100601.55
2017-11-24T11:28:34.197Z,100602.16
2017-11-24T11:31:01.936Z,100602.48
2017-11-24T11:33:29.696Z,100596.27
2017-11-24T11:35:58.322Z,100597.84
2017-11-24T11:38:26.810Z,100584.92
2017-11-24T11:40:55.310Z,100578.59
2017-11-24T11:43:23.143Z,100583.33
2017-11-24T11:45:51.034Z,100588.23
2017-11-24T11:48:18.737Z,100575.58
2017-11-24T11:50:47.279Z,100579.18
2017-11-24T11:53:15.441Z,100585.05
2017-11-24T11:55:43.140Z,100575.63
2017-11-24T11:58:11.604Z,100583.41
2017-11-24T12:00:39.664Z,100587.66
2017-11-24T12:03:08.600Z,100584.89
2017-11-24T12:05:37.336Z,100590.06
2017-11-24T12:08:06.353Z,100594.36
2017-11-24T12:10:34.033Z,100591.70
2017-11-24T12:13:02.294Z,100603.17
2017-11-24T12:15:29.969Z,100609.75
2017-11-24T12:17:59.592Z,100614.22
2017-11-24T12:20:27.664Z,100611.48
2017-11-24T12:22:55.442Z,100602.77
2017-11-24T12:25:23.682Z,100600.19
2017-11-24T12:27:51.691Z,100603.53
2017-11-24T12:30:19.431Z,100606.69
2017-11-24T12:32:47.284Z,100603.48
2017-11-24T12:35:16.009Z,100602.46
2017-11-24T12:37:43.825Z,100602.86
2017-11-24T12:40:12.028Z,100611.08
2017-11-24T12:42:40.521Z,100601.56
2017-11-24T12:45:09.521Z,100611.09
2017-11-24T12:47:37.362Z,100609.91
2017-11-24T12:50:05.406Z,100616.22
2017-11-24T12:52:33.189Z,100613.34
2017-11-24T12:55:01.210Z,100614.58
2017-11-24T12:57:29.000Z,100623.66
2017-11-24T12:59:57.163Z,100628.06
2017-11-24T13:02:26.172Z,100631.98
2017-11-24T13:04:54.272Z,100637.19
2017-11-24T13:07:22.456Z,100641.73
2017-11-24T13:09:50.425Z,100644.42
2017-11-24T13:12:18.663Z,100652.31
2017-11-24T13:14:46.455Z,100650.11
2017-11-24T13:17:14.521Z,100663.24
2017-11-24T13:19:42.454Z,100674.27
2017-11-24T13:22:10.886Z,100665.06
2017-11-24T13:24:38.643Z,100660.62
2017-11-24T13:27:06.405Z,100663.17
2017-11-24T13:29:34.211Z,100660.54
2017-11-24T13:32:02.181Z,100661.73
2017-11-24T13:34:29.923Z,100664.72
2017-11-24T13:36:57.667Z,100668.00
2017-11-24T13:39:25.723Z,100674.80
2017-11-24T13:41:53.456Z,100670.36
2017-11-24T13:44:22.510Z,100669.84
2017-11-24T13:46:50.550Z,100672.11
2017-11-24T13:49:18.776Z,100678.49
2017-11-24T13:51:46.541Z,100681.55
2017-11-24T13:54:14.658Z,100686.55
2017-11-24T13:56:42.485Z,100682.94
2017-11-24T13:59:10.372Z,100685.47
2017-11-24T14:01:42.150Z,100695.33
2017-11-24T14:04:10.317Z,100698.41
2017-11-24T14:06:38.372Z,100699.43
2017-11-24T14:09:06.152Z,100707.24
2017-11-24T14:11:33.914Z,100704.19
2017-11-24T14:14:02.791Z,100699.34
2017-11-24T14:16:30.565Z,100706.73
2017-11-24T14:18:58.335Z,100717.59
2017-11-24T14:21:26.067Z,100721.89
2017-11-24T14:23:53.833Z,100723.28
2017-11-24T14:26:21.952Z,100725.68
2017-11-24T14:28:49.655Z,100733.45
2017-11-24T14:31:17.436Z,100739.45
2017-11-24T14:33:45.151Z,100746.32
2017-11-24T14:36:13.098Z,100748.72
2017-11-24T14:38:41.036Z,100750.39
2017-11-24T14:41:08.807Z,100750.01
2017-11-24T14:43:36.803Z,100755.87
2017-11-24T14:46:05.208Z,100764.55
2017-11-24T14:48:33.168Z,100770.55
2017-11-24T14:51:01.488Z,100769.67
2017-11-24T14:53:29.336Z,100774.88
2017-11-24T14:55:57.561Z,100776.16
2017-11-24T14:58:25.363Z,100779.80
2017-11-24T15:00:53.435Z,100772.64
2017-11-24T15:03:21.179Z,100780.78
2017-11-24T15:05:49.164Z,100782.80
2017-11-24T15:08:17.294Z,100787.78
2017-11-24T15:10:45.084Z,100789.41
2017-11-24T15:13:13.960Z,100788.89
2017-11-24T15:15:41.977Z,100795.85
2017-11-24T15:18:11.369Z,100801.30
2017-11-24T15:20:39.430Z,100796.72
2017-11-24T15:23:07.190Z,100811.13
2017-11-24T15:25:34.875Z,100811.30
2017-11-24T15:28:02.672Z,100815.50
2017-11-24T15:30:30.745Z,100811.54
2017-11-24T15:32:58.580Z,100820.41
2017-11-24T15:35:26.254Z,100814.73
2017-11-24T15:37:54.073Z,100829.00
2017-11-24T15:40:21.764Z,100827.44
2017-11-24T15:42:49.504Z,100830.11
2017-11-24T15:45:17.413Z,100829.55
2017-11-24T15:47:45.959Z,100834.98
2017-11-24T15:50:13.670Z,100837.48
2017-11-24T15:52:41.680Z,100836.95
2017-11-24T15:55:09.504Z,100836.88
2017-11-24T15:57:37.498Z,100837.98
2017-11-24T16:00:06.632Z,100842.97
2017-11-24T16:02:34.383Z,100838.13
2017-11-24T16:05:02.196Z,100843.53
2017-11-24T16:07:29.946Z,100848.58
2017-11-24T16:09:57.686Z,100857.58
2017-11-24T16:12:25.419Z,100854.84
2017-11-24T16:14:53.214Z,100850.98
2017-11-24T16:17:20.940Z,100863.87
2017-11-24T16:19:48.695Z,100858.36
2017-11-24T16:22:18.640Z,100860.46
2017-11-24T16:24:46.688Z,100865.53
2017-11-24T16:27:14.921Z,100866.14
2017-11-24T16:29:43.504Z,100869.47
2017-11-24T16:32:11.457Z,100869.77
2017-11-24T16:34:39.633Z,100874.97
2017-11-24T16:37:07.426Z,100874.44
2017-11-24T16:39:35.575Z,100874.39
2017-11-24T16:42:03.260Z,100880.59
2017-11-24T16:44:31.175Z,100873.59
2017-11-24T16:46:59.066Z,100881.13
2017-11-24T16:49:26.808Z,100887.00
2017-11-24T16:51:54.528Z,100891.41
2017-11-24T16:54:22.261Z,100890.95
2017-11-24T16:56:50.100Z,100891.00
2017-11-24T16:59:18.130Z,100892.72
2017-11-24T17:01:46.198Z,100897.05
2017-11-24T17:04:13.878Z,100905.52
2017-11-24T17:06:41.929Z,100902.49
2017-11-24T17:09:10.021Z,100903.59
2017-11-24T17:11:38.114Z,100901.13
2017-11-24T17:14:06.807Z,100895.52
2017-11-24T17:16:34.783Z,100901.07
2017-11-24T17:19:02.444Z,100899.87
2017-11-24T17:21:30.212Z,100898.52
2017-11-24T17:23:58.108Z,100903.80
2017-11-24T17:26:27.054Z,100906.84
2017-11-24T17:28:55.037Z,100909.77
2017-11-24T17:31:23.151Z,100910.32
2017-11-24T17:33:50.832Z,100913.94
2017-11-24T17:36:19.586Z,100917.12
2017-11-24T17:38:47.293Z,100911.20
2017-11-24T17:41:15.000Z,100917.45
2017-11-24T17:43:43.620Z,100922.70
2017-11-24T17:46:11.356Z,100920.91
2017-11-24T17:48:39.872Z,100930.73
2017-11-24T17:51:07.639Z,100932.23
2017-11-24T17:53:35.368Z,100926.59
2017-11-24T17:56:04.258Z,100933.77
2017-11-24T17:58:32.349Z,100936.66
2017-11-24T18:01:00.120Z,100940.38
2017-11-24T18:03:28.702Z,100951.27
2017-11-24T18:05:56.460Z,100955.41
2017-11-24T18:08:24.205Z,100953.61
2017-11-24T18:10:51.911Z,100957.05
2017-11-24T18:13:19.864Z,100959.26
2017-11-24T18:15:47.588Z,100960.22
2017-11-24T18:18:15.348Z,100961.19
2017-11-24T18:20:43.022Z,100960.50
2017-11-24T18:23:10.744Z,100956.35
2017-11-24T18:25:38.429Z,100963.92
2017-11-24T18:28:06.166Z,100958.80
2017-11-24T18:30:33.887Z,100958.87
2017-11-24T18:33:01.596Z,100962.72
2017-11-24T18:35:29.241Z,100960.77
2017-11-24T18:37:56.934Z,100963.16
2017-11-24T18:40:24.650Z,100962.17
2017-11-24T18:42:52.359Z,100965.65
2017-11-24T18:45:20.073Z,100970.18
2017-11-24T18:47:47.709Z,100976.06
2017-11-24T18:50:15.416Z,100972.57
2017-11-24T18:52:43.111Z,100973.78
2017-11-24T18:55:10.856Z,100971.27
2017-11-24T18:57:38.541Z,100975.89
2017-11-24T19:00:06.250Z,100975.05
2017-11-24T19:02:33.911Z,100988.07
2017-11-24T19:05:01.633Z,100987.63
2017-11-24T19:07:29.298Z,100988.88
2017-11-24T19:09:57.003Z,100978.95
2017-11-24T19:12:24.633Z,100988.36
2017-11-24T19:14:52.249Z,100990.73
2017-11-24T19:17:19.912Z,101000.09
2017-11-24T19:19:47.613Z,101000.07
2017-11-24T19:22:15.295Z,101000.33
2017-11-24T19:24:42.977Z,101000.70
2017-11-24T19:27:10.767Z,101005.86
2017-11-24T19:29:38.528Z,101007.88
2017-11-24T19:32:06.199Z,101011.84
2017-11-24T19:34:33.869Z,101014.83
2017-11-24T19:37:01.583Z,101014.59
2017-11-24T19:39:29.253Z,101004.92
2017-11-24T19:41:56.940Z,101008.59
2017-11-24T19:44:24.601Z,101005.00
2017-11-24T19:46:52.308Z,101009.70
2017-11-24T19:49:19.995Z,101018.36
2017-11-24T19:51:47.689Z,101011.77
2017-11-24T19:54:15.356Z,101016.05
2017-11-24T19:56:43.083Z,101020.71
2017-11-24T19:59:10.737Z,101023.73
2017-11-24T20:01:38.465Z,101014.65
2017-11-24T20:04:06.125Z,101018.73
2017-11-24T20:06:33.854Z,101026.17
2017-11-24T20:09:01.548Z,101023.76
2017-11-24T20:11:29.301Z,101024.48
2017-11-24T20:13:57.055Z,101028.11
2017-11-24T20:16:24.795Z,101027.67
2017-11-24T20:18:52.461Z,101032.30
2017-11-24T20:21:20.187Z,101035.70
2017-11-24T20:23:47.872Z,101035.95
2017-11-24T20:26:15.607Z,101034.42
2017-11-24T20:28:43.275Z,101030.49
2017-11-24T20:31:10.928Z,101035.84
2017-11-24T20:33:38.685Z,101032.89
2017-11-24T20:36:06.425Z,101034.95
2017-11-24T20:38:34.144Z,101037.04
2017-11-24T20:41:05.550Z,101045.97
2017-11-24T20:43:33.597Z,101040.79
2017-11-24T20:46:01.270Z,101044.36
2017-11-24T20:48:28.992Z,101042.20
2017-11-24T20:50:56.751Z,101037.91
2017-11-24T20:53:24.456Z,101038.73
2017-11-24T20:55:52.166Z,101036.84
2017-11-24T20:58:19.875Z,101044.42
2017-11-24T21:00:47.581Z,101041.05
2017-11-24T21:03:15.302Z,101031.58
2017-11-24T21:05:42.966Z,101028.73
2017-11-24T21:08:10.681Z,101036.03
2017-11-24T21:10:38.360Z,101032.36
2017-11-24T21:13:06.112Z,101035.27
2017-11-24T21:15:33.824Z,101030.08
2017-11-24T21:18:01.514Z,101026.26
2017-11-24T21:20:29.212Z,101026.52
2017-11-24T21:22:56.918Z,101026.26
2017-11-24T21:25:24.569Z,101026.81
2017-11-24T21:27:52.252Z,101024.20
2017-11-24T21:30:19.964Z,101029.84
2017-11-24T21:32:47.646Z,101034.41
2017-11-24T21:35:15.380Z,101032.91
2017-11-24T21:37:43.078Z,101028.79
2017-11-24T21:40:10.779Z,101033.19
2017-11-24T21:42:38.453Z,101035.53
2017-11-24T21:45:06.167Z,101041.89
2017-11-24T21:47:33.838Z,101050.98
2017-11-24T21:50:01.552Z,101043.02
2017-11-24T21:52:29.188Z,101043.70
2017-11-24T21:54:56.957Z,101041.25
2017-11-24T21:57:24.641Z,101042.50
2017-11-24T21:59:52.333Z,101043.91
2017-11-24T22:02:20.025Z,101049.86
2017-11-24T22:04:47.738Z,101048.08
2017-11-24T22:07:15.426Z,101058.45
2017-11-24T22:09:43.156Z,101047.82
2017-11-24T22:12:10.830Z,101051.16
2017-11-24T22:14:38.501Z,101055.02
2017-11-24T22:17:06.213Z,101057.25
2017-11-24T22:19:33.867Z,101065.79
2017-11-24T22:22:01.582Z,101067.05
2017-11-24T22:24:29.263Z,101073.41
2017-11-24T22:26:56.970Z,101066.79
2017-11-24T22:29:24.658Z,101063.78
2017-11-24T22:31:52.397Z,101063.93
2017-11-24T22:34:20.108Z,101062.69
2017-11-24T22:36:47.850Z,101055.13
2017-11-24T22:39:15.547Z,101054.30
2017-11-24T22:41:43.255Z,101050.16
2017-11-24T22:44:11.369Z,101050.02
2017-11-24T22:46:39.076Z,101053.61
2017-11-24T22:49:06.749Z,101065.48
2017-11-24T22:51:34.469Z,101063.00
2017-11-24T22:54:02.150Z,101064.67
2017-11-24T22:56:30.882Z,101060.13
2017-11-24T22:58:58.543Z,101062.88
2017-11-24T23:01:26.189Z,101054.48
2017-11-24T23:03:53.900Z,101062.77
2017-11-24T23:06:21.608Z,101066.73
2017-11-24T23:08:49.291Z,101069.38
2017-11-24T23:11:16.963Z,101074.77
2017-11-24T23:13:44.675Z,101076.15
2017-11-24T23:16:12.302Z,101070.47
2017-11-24T23:18:40.031Z,101068.29
2017-11-24T23:21:07.697Z,101058.34
2017-11-24T23:23:35.414Z,101066.63
2017-11-24T23:26:03.079Z,101061.94
2017-11-24T23:28:30.783Z,101064.95
2017-11-24T23:30:58.481Z,101061.65
2017-11-24T23:33:26.185Z,101067.59
2017-11-24T23:35:53.859Z,101058.77
2017-11-24T23:38:21.569Z,101057.52
2017-11-24T23:40:49.231Z,101058.22
2017-11-24T23:43:16.917Z,101052.00
2017-11-24T23:45:44.585Z,101052.96
2017-11-24T23:48:12.269Z,101059.19
2017-11-24T23:50:39.932Z,101057.65
2017-11-24T23:53:07.629Z,101058.64
2017-11-24T23:55:35.316Z,101062.91
2017-11-24T23:58:02.974Z,101066.22
